createdAt,value
2023-03-05T00:00:32.587Z,27.90
2023-03-05T00:04:32.616Z,27.94
2023-03-05T00:08:32.677Z,27.96
2023-03-05T00:12:32.679Z,27.94
2023-03-05T00:16:32.718Z,27.94
2023-03-05T00:20:32.758Z,28.00
2023-03-05T00:24:32.861Z,27.87
2023-03-05T00:28:32.917Z,27.87
2023-03-05T00:32:33.002Z,27.92
2023-03-05T00:36:33.020Z,27.87
2023-03-05T00:40:33.188Z,27.89
2023-03-05T00:44:33.161Z,27.92
2023-03-05T00:48:33.218Z,27.91
2023-03-05T00:52:33.310Z,27.91
2023-03-05T00:56:33.343Z,27.89
2023-03-05T01:00:33.440Z,27.87
2023-03-05T01:04:33.464Z,27.82
2023-03-05T01:08:33.547Z,27.79
2023-03-05T01:12:33.622Z,27.87
2023-03-05T01:16:33.782Z,27.80
2023-03-05T01:20:33.826Z,27.83
2023-03-05T01:24:33.944Z,27.83
2023-03-05T01:28:34.007Z,27.83
2023-03-05T01:32:35.451Z,27.83
2023-03-05T01:36:34.168Z,27.82
2023-03-05T01:40:34.259Z,27.79
2023-03-05T01:44:34.385Z,27.79
2023-03-05T01:48:34.443Z,27.77
2023-03-05T01:52:34.582Z,27.78
2023-03-05T01:56:34.741Z,27.76
2023-03-05T02:00:34.842Z,27.74
2023-03-05T02:04:34.960Z,27.76
2023-03-05T02:08:35.023Z,27.76
2023-03-05T02:12:35.125Z,27.77
2023-03-05T02:16:35.311Z,27.73
2023-03-05T02:20:35.465Z,27.73
2023-03-05T02:24:35.496Z,27.68
2023-03-05T02:28:35.572Z,27.73
2023-03-05T02:32:35.743Z,27.71
2023-03-05T02:36:35.806Z,27.71
2023-03-05T02:40:35.948Z,27.66
2023-03-05T02:44:36.052Z,27.64
2023-03-05T02:48:36.217Z,27.59
2023-03-05T02:52:36.346Z,27.66
2023-03-05T02:56:36.423Z,27.68
2023-03-05T03:00:36.443Z,27.68
2023-03-05T03:04:36.506Z,27.68
2023-03-05T03:08:36.554Z,27.66
2023-03-05T03:12:36.632Z,27.61
2023-03-05T03:16:36.714Z,27.58
2023-03-05T03:20:36.758Z,27.60
2023-03-05T03:24:36.916Z,27.65
2023-03-05T03:28:37.072Z,27.60
2023-03-05T03:32:37.324Z,27.59
2023-03-05T03:36:37.395Z,27.62
2023-03-05T03:40:37.586Z,27.59
2023-03-05T03:44:37.720Z,27.56
2023-03-05T03:48:37.885Z,27.54
2023-03-05T03:52:38.027Z,27.54
2023-03-05T03:56:38.208Z,27.57
2023-03-05T04:00:38.338Z,27.57
2023-03-05T04:04:38.577Z,27.50
2023-03-05T04:08:38.702Z,27.58
2023-03-05T04:12:38.884Z,27.50
2023-03-05T04:16:39.077Z,27.54
2023-03-05T04:20:39.246Z,27.50
2023-03-05T04:24:39.446Z,27.54
2023-03-05T04:28:39.639Z,27.47
2023-03-05T04:32:39.875Z,27.45
2023-03-05T04:36:40.026Z,27.47
2023-03-05T04:40:40.244Z,27.48
2023-03-05T04:44:40.378Z,27.43
2023-03-05T04:48:40.570Z,27.42
2023-03-05T04:52:40.789Z,27.47
2023-03-05T04:56:40.953Z,27.47
2023-03-05T05:00:41.099Z,27.39
2023-03-05T05:04:41.314Z,27.44
2023-03-05T05:08:41.495Z,27.44
2023-03-05T05:12:41.698Z,27.37
2023-03-05T05:16:41.881Z,27.42
2023-03-05T05:20:42.081Z,27.36
2023-03-05T05:24:42.318Z,27.39
2023-03-05T05:28:42.508Z,27.32
2023-03-05T05:32:42.902Z,27.41
2023-03-05T05:36:42.665Z,27.35
2023-03-05T05:40:42.654Z,27.35
2023-03-05T05:44:42.606Z,27.33
2023-03-05T05:48:42.581Z,27.39
2023-03-05T05:52:42.557Z,27.33
2023-03-05T05:56:42.489Z,27.30
2023-03-05T06:00:42.449Z,27.32
2023-03-05T06:04:42.460Z,27.30
2023-03-05T06:08:42.370Z,27.30
2023-03-05T06:12:42.397Z,27.36
2023-03-05T06:16:42.526Z,27.29
2023-03-05T06:20:42.435Z,27.32
2023-03-05T06:24:42.384Z,27.26
2023-03-05T06:28:42.351Z,27.23
2023-03-05T06:32:42.297Z,27.26
2023-03-05T06:36:42.286Z,27.26
2023-03-05T06:40:42.258Z,27.23
2023-03-05T06:44:42.186Z,27.25
2023-03-05T06:48:42.158Z,27.20
2023-03-05T06:52:42.136Z,27.15
2023-03-05T06:56:42.093Z,27.13
2023-03-05T07:00:42.295Z,27.16
2023-03-05T07:04:42.233Z,27.15
2023-03-05T07:08:42.194Z,27.15
2023-03-05T07:12:43.573Z,27.13
2023-03-05T07:16:42.121Z,27.12
2023-03-05T07:20:42.086Z,27.11
2023-03-05T07:24:42.043Z,27.08
2023-03-05T07:28:42.085Z,27.06
2023-03-05T07:32:42.323Z,27.08
2023-03-05T07:36:42.570Z,27.01
2023-03-05T07:40:42.712Z,27.04
2023-03-05T07:44:42.931Z,26.94
2023-03-05T07:48:43.080Z,26.95
2023-03-05T07:52:43.265Z,26.87
2023-03-05T07:56:43.441Z,26.87
2023-03-05T08:00:43.591Z,26.82
2023-03-05T08:04:43.723Z,26.82
2023-03-05T08:08:43.903Z,26.72
2023-03-05T08:12:44.036Z,26.71
2023-03-05T08:16:45.733Z,26.69
2023-03-05T08:20:44.072Z,26.67
2023-03-05T08:24:44.030Z,26.61
2023-03-05T08:28:43.961Z,26.59
2023-03-05T08:32:43.923Z,26.58
2023-03-05T08:36:43.900Z,26.54
2023-03-05T08:40:43.863Z,26.49
2023-03-05T08:44:43.829Z,26.41
2023-03-05T08:48:43.784Z,26.34
2023-03-05T08:52:43.812Z,26.22
2023-03-05T08:56:43.740Z,26.24
2023-03-05T09:00:43.679Z,26.24
2023-03-05T09:04:43.656Z,26.16
2023-03-05T09:08:43.596Z,26.09
2023-03-05T09:12:43.595Z,26.04
2023-03-05T09:16:43.615Z,25.97
2023-03-05T09:20:43.502Z,25.90
2023-03-05T09:24:43.491Z,25.85
2023-03-05T09:28:43.507Z,25.80
2023-03-05T09:32:43.688Z,25.69
2023-03-05T09:36:43.730Z,25.62
2023-03-05T09:40:43.833Z,25.61
2023-03-05T09:44:43.898Z,25.48
2023-03-05T09:48:43.912Z,25.45
2023-03-05T09:52:43.944Z,25.45
2023-03-05T09:56:43.938Z,25.45
2023-03-05T10:00:43.939Z,25.41
2023-03-05T10:04:43.955Z,25.38
2023-03-05T10:08:43.983Z,25.38
2023-03-05T10:12:44.009Z,25.33
2023-03-05T10:16:44.166Z,25.36
2023-03-05T10:20:44.245Z,25.38
2023-03-05T10:24:44.330Z,25.42
2023-03-05T10:28:44.563Z,25.42
2023-03-05T10:32:44.786Z,25.36
2023-03-05T10:36:44.688Z,25.42
2023-03-05T10:40:44.660Z,25.38
2023-03-05T10:44:44.648Z,25.36
2023-03-05T10:48:44.615Z,25.40
2023-03-05T10:52:44.582Z,25.38
2023-03-05T10:56:44.547Z,25.33
2023-03-05T11:00:44.567Z,25.35
2023-03-05T11:04:44.466Z,25.33
2023-03-05T11:08:44.458Z,25.32
2023-03-05T11:12:44.393Z,25.27
2023-03-05T11:16:44.338Z,25.24
2023-03-05T11:20:44.323Z,25.25
2023-03-05T11:24:44.284Z,25.19
2023-03-05T11:28:44.240Z,25.13
2023-03-05T11:32:44.189Z,25.16
2023-03-05T11:36:44.211Z,25.12
2023-03-05T11:40:44.186Z,25.08
2023-03-05T11:44:44.372Z,25.03
2023-03-05T11:48:44.591Z,25.03
2023-03-05T11:52:44.556Z,24.96
2023-03-05T11:56:44.510Z,25.01
2023-03-05T12:00:44.491Z,24.94
2023-03-05T12:04:44.466Z,24.98
2023-03-05T12:08:44.998Z,24.94
2023-03-05T12:12:44.647Z,24.93
2023-03-05T12:16:44.342Z,24.90
2023-03-05T12:20:44.417Z,24.89
2023-03-05T12:24:44.263Z,24.82
2023-03-05T12:28:44.386Z,24.81
2023-03-05T12:32:44.322Z,24.85
2023-03-05T12:36:44.121Z,24.79
2023-03-05T12:40:44.122Z,24.84
2023-03-05T12:44:44.255Z,24.84
2023-03-05T12:48:44.354Z,24.84
2023-03-05T12:52:44.442Z,24.83
2023-03-05T12:56:44.616Z,24.84
2023-03-05T13:00:44.672Z,24.78
2023-03-05T13:04:44.755Z,24.77
2023-03-05T13:08:44.850Z,24.77
2023-03-05T13:12:44.951Z,24.74
2023-03-05T13:16:45.125Z,24.75
2023-03-05T13:20:45.887Z,24.75
2023-03-05T13:24:45.235Z,24.69
2023-03-05T13:28:45.348Z,24.73
2023-03-05T13:32:45.388Z,24.72
2023-03-05T13:36:45.453Z,24.67
2023-03-05T13:40:45.497Z,24.68
2023-03-05T13:44:45.564Z,24.69
2023-03-05T13:48:45.691Z,24.75
2023-03-05T13:52:45.720Z,24.73
2023-03-05T13:56:45.708Z,24.75
2023-03-05T14:00:45.885Z,24.83
2023-03-05T14:04:45.957Z,24.83
2023-03-05T14:08:46.015Z,24.86
2023-03-05T14:12:46.153Z,24.86
2023-03-05T14:16:46.284Z,24.86
2023-03-05T14:20:46.357Z,24.87
2023-03-05T14:24:46.469Z,24.93
2023-03-05T14:28:46.657Z,24.96
2023-03-05T14:32:46.782Z,24.95
2023-03-05T14:36:46.902Z,24.89
2023-03-05T14:40:47.055Z,24.91
2023-03-05T14:44:47.242Z,24.89
2023-03-05T14:48:47.352Z,25.01
2023-03-05T14:52:47.546Z,24.99
2023-03-05T14:56:47.797Z,25.06
2023-03-05T15:00:50.667Z,25.12
2023-03-05T15:04:47.942Z,25.17
2023-03-05T15:08:47.901Z,25.18
2023-03-05T15:12:47.878Z,25.24
2023-03-05T15:16:47.856Z,25.27
2023-03-05T15:20:47.810Z,25.31
2023-03-05T15:24:47.771Z,25.35
2023-03-05T15:28:47.750Z,25.40
2023-03-05T15:32:47.711Z,25.39
2023-03-05T15:36:47.672Z,25.31
2023-03-05T15:40:47.612Z,25.33
2023-03-05T15:44:47.600Z,25.37
2023-03-05T15:48:47.566Z,25.36
2023-03-05T15:52:47.535Z,25.31
2023-03-05T15:56:47.483Z,25.30
2023-03-05T16:00:47.562Z,25.31
2023-03-05T16:04:47.437Z,25.31
2023-03-05T16:08:47.425Z,25.36
2023-03-05T16:12:47.341Z,25.34
2023-03-05T16:16:47.321Z,25.28
2023-03-05T16:20:47.349Z,25.32
2023-03-05T16:24:47.472Z,25.27
2023-03-05T16:28:47.625Z,25.36
2023-03-05T16:32:47.782Z,25.32
2023-03-05T16:36:47.980Z,25.27
2023-03-05T16:41:08.240Z,25.27
2023-03-05T16:44:49.132Z,25.31
2023-03-05T16:48:48.089Z,25.33
2023-03-05T16:52:48.091Z,25.34
2023-03-05T16:56:48.277Z,25.30
2023-03-05T17:00:48.581Z,25.31
2023-03-05T17:04:48.515Z,25.27
2023-03-05T17:08:48.471Z,25.31
2023-03-05T17:12:48.436Z,25.29
2023-03-05T17:16:48.410Z,25.26
2023-03-05T17:20:48.352Z,25.28
2023-03-05T17:24:48.316Z,25.29
2023-03-05T17:28:48.306Z,25.32
2023-03-05T17:32:48.256Z,25.31
2023-03-05T17:36:48.215Z,25.30
2023-03-05T17:40:48.207Z,25.27
2023-03-05T17:48:48.193Z,25.31
2023-03-05T17:52:48.177Z,25.30
2023-03-05T17:56:48.239Z,25.36
2023-03-05T18:00:48.342Z,25.36
2023-03-05T18:04:48.395Z,25.33
2023-03-05T18:08:48.512Z,25.36
2023-03-05T18:12:48.593Z,25.35
2023-03-05T18:16:48.710Z,25.42
2023-03-05T18:20:48.838Z,25.37
2023-03-05T18:24:48.840Z,25.46
2023-03-05T18:28:48.969Z,25.44
2023-03-05T18:32:49.035Z,25.44
2023-03-05T18:36:49.077Z,25.47
2023-03-05T18:40:49.148Z,25.45
2023-03-05T18:44:49.156Z,25.49
2023-03-05T18:48:49.136Z,25.49
2023-03-05T18:52:49.153Z,25.53
2023-03-05T18:56:49.145Z,25.52
2023-03-05T19:00:49.135Z,25.48
2023-03-05T19:04:49.104Z,25.52
2023-03-05T19:08:49.108Z,25.56
2023-03-05T19:12:49.113Z,25.50
2023-03-05T19:16:49.126Z,25.57
2023-03-05T19:20:49.106Z,25.53
2023-03-05T19:24:49.086Z,25.57
2023-03-05T19:28:49.086Z,25.54
2023-03-05T19:32:49.102Z,25.62
2023-03-05T19:36:49.116Z,25.57
2023-03-05T19:40:49.146Z,25.62
2023-03-05T19:44:49.146Z,25.65
2023-03-05T19:48:49.184Z,25.62
2023-03-05T19:52:49.214Z,25.64
2023-03-05T19:56:49.287Z,25.69
2023-03-05T20:00:49.324Z,25.69
2023-03-05T20:04:49.546Z,25.69
2023-03-05T20:08:49.552Z,25.64
2023-03-05T20:12:49.542Z,25.67
2023-03-05T20:16:49.656Z,25.64
2023-03-05T20:20:49.752Z,25.64
2023-03-05T20:24:49.800Z,25.63
2023-03-05T20:28:49.956Z,25.60
2023-03-05T20:32:50.042Z,25.61
2023-03-05T20:36:50.102Z,25.58
2023-03-05T20:40:50.251Z,25.61
2023-03-05T20:44:50.376Z,25.55
2023-03-05T20:48:50.497Z,25.60
2023-03-05T20:52:50.659Z,25.55
2023-03-05T20:56:50.801Z,25.55
2023-03-05T21:00:50.919Z,25.57
2023-03-05T21:04:51.042Z,25.54
2023-03-05T21:08:51.213Z,25.56
2023-03-05T21:12:51.358Z,25.53
2023-03-05T21:16:51.484Z,25.58
2023-03-05T21:20:51.644Z,25.55
2023-03-05T21:24:51.811Z,25.53
2023-03-05T21:28:51.928Z,25.54
2023-03-05T21:32:52.148Z,25.53
2023-03-05T21:36:53.093Z,25.53
2023-03-05T21:40:52.450Z,25.50
2023-03-05T21:44:52.627Z,25.50
2023-03-05T21:48:52.778Z,25.46
2023-03-05T21:52:52.994Z,25.44
2023-03-05T21:56:53.177Z,25.49
2023-03-05T22:00:53.371Z,25.48
2023-03-05T22:04:53.536Z,25.51
2023-03-05T22:08:53.740Z,25.49
2023-03-05T22:12:53.913Z,25.45
2023-03-05T22:16:54.140Z,25.47
2023-03-05T22:20:54.294Z,25.48
2023-03-05T22:24:54.481Z,25.48
2023-03-05T22:28:54.668Z,25.51
2023-03-05T22:32:54.845Z,25.47
2023-03-05T22:36:55.089Z,25.45
2023-03-05T22:40:55.266Z,25.45
2023-03-05T22:44:55.468Z,25.39
2023-03-05T22:48:55.757Z,25.43
2023-03-05T22:52:55.916Z,25.48
2023-03-05T22:56:56.147Z,25.44
2023-03-05T23:00:56.341Z,25.39
2023-03-05T23:04:56.303Z,25.46
2023-03-05T23:08:56.268Z,25.40
2023-03-05T23:12:56.252Z,25.42
2023-03-05T23:16:56.182Z,25.44
2023-03-05T23:20:56.138Z,25.40
2023-03-05T23:24:56.159Z,25.34
2023-03-05T23:28:56.081Z,25.36
2023-03-05T23:32:56.046Z,25.41
2023-03-05T23:36:56.009Z,25.38
2023-03-05T23:40:55.981Z,25.37
2023-03-05T23:44:55.951Z,25.38
2023-03-05T23:48:55.924Z,25.35
2023-03-05T23:52:55.878Z,25.39
2023-03-05T23:56:55.823Z,25.41
